sensor_id;sensor_type;location;lat;lon;timestamp;P1;durP1;ratioP1;P2;durP2;ratioP2
79126;SDS011;68528;48.814;8.904;2023-04-16T00:00:57;12.98;;;7.50;;
79126;SDS011;68528;48.814;8.904;2023-04-16T00:03:24;12.02;;;7.20;;
79126;SDS011;68528;48.814;8.904;2023-04-16T00:05:49;11.40;;;7.07;;
79126;SDS011;68528;48.814;8.904;2023-04-16T00:08:14;11.75;;;6.80;;
79126;SDS011;68528;48.814;8.904;2023-04-16T00:10:41;11.93;;;7.35;;
79126;SDS011;68528;48.814;8.904;2023-04-16T00:13:16;9.82;;;5.53;;
79126;SDS011;68528;48.814;8.904;2023-04-16T00:15:44;9.77;;;6.40;;
79126;SDS011;68528;48.814;8.904;2023-04-16T00:18:10;11.88;;;7.55;;
79126;SDS011;68528;48.814;8.904;2023-04-16T00:20:35;10.32;;;6.90;;
79126;SDS011;68528;48.814;8.904;2023-04-16T00:23:01;11.52;;;6.78;;
79126;SDS011;68528;48.814;8.904;2023-04-16T00:25:26;14.43;;;7.68;;
79126;SDS011;68528;48.814;8.904;2023-04-16T00:27:51;13.45;;;7.35;;
79126;SDS011;68528;48.814;8.904;2023-04-16T00:30:18;11.63;;;6.50;;
79126;SDS011;68528;48.814;8.904;2023-04-16T00:33:05;11.63;;;6.60;;
79126;SDS011;68528;48.814;8.904;2023-04-16T00:35:31;14.40;;;7.57;;
79126;SDS011;68528;48.814;8.904;2023-04-16T00:37:56;11.70;;;7.25;;
79126;SDS011;68528;48.814;8.904;2023-04-16T00:40:22;10.90;;;6.70;;
79126;SDS011;68528;48.814;8.904;2023-04-16T00:42:47;10.10;;;6.03;;
79126;SDS011;68528;48.814;8.904;2023-04-16T00:45:13;13.23;;;7.32;;
79126;SDS011;68528;48.814;8.904;2023-04-16T00:47:38;11.00;;;7.25;;
79126;SDS011;68528;48.814;8.904;2023-04-16T00:50:04;12.82;;;6.97;;
79126;SDS011;68528;48.814;8.904;2023-04-16T00:52:30;11.80;;;6.88;;
79126;SDS011;68528;48.814;8.904;2023-04-16T00:54:57;11.02;;;6.68;;
79126;SDS011;68528;48.814;8.904;2023-04-16T00:57:23;9.30;;;5.75;;
79126;SDS011;68528;48.814;8.904;2023-04-16T00:59:48;11.00;;;6.60;;
79126;SDS011;68528;48.814;8.904;2023-04-16T01:02:15;11.68;;;6.63;;
79126;SDS011;68528;48.814;8.904;2023-04-16T01:04:40;10.68;;;6.43;;
79126;SDS011;68528;48.814;8.904;2023-04-16T01:07:06;10.27;;;6.78;;
79126;SDS011;68528;48.814;8.904;2023-04-16T01:09:33;10.55;;;6.25;;
79126;SDS011;68528;48.814;8.904;2023-04-16T01:11:59;11.32;;;6.07;;
79126;SDS011;68528;48.814;8.904;2023-04-16T01:14:26;9.40;;;5.45;;
79126;SDS011;68528;48.814;8.904;2023-04-16T01:16:52;9.95;;;5.90;;
79126;SDS011;68528;48.814;8.904;2023-04-16T01:19:17;8.98;;;5.40;;
79126;SDS011;68528;48.814;8.904;2023-04-16T01:21:42;8.50;;;5.43;;
79126;SDS011;68528;48.814;8.904;2023-04-16T01:24:08;8.48;;;5.10;;
79126;SDS011;68528;48.814;8.904;2023-04-16T01:26:33;9.38;;;5.72;;
79126;SDS011;68528;48.814;8.904;2023-04-16T01:28:59;9.55;;;5.72;;
79126;SDS011;68528;48.814;8.904;2023-04-16T01:31:25;8.48;;;5.15;;
79126;SDS011;68528;48.814;8.904;2023-04-16T01:33:51;10.55;;;5.53;;
79126;SDS011;68528;48.814;8.904;2023-04-16T01:36:16;7.47;;;5.20;;
79126;SDS011;68528;48.814;8.904;2023-04-16T01:38:42;9.40;;;5.47;;
79126;SDS011;68528;48.814;8.904;2023-04-16T01:41:07;7.22;;;4.75;;
79126;SDS011;68528;48.814;8.904;2023-04-16T01:47:01;8.55;;;5.18;;
79126;SDS011;68528;48.814;8.904;2023-04-16T01:49:30;8.48;;;4.95;;
79126;SDS011;68528;48.814;8.904;2023-04-16T01:52:01;7.88;;;4.65;;
79126;SDS011;68528;48.814;8.904;2023-04-16T02:00:36;9.68;;;5.28;;
79126;SDS011;68528;48.814;8.904;2023-04-16T02:03:01;9.88;;;5.60;;
79126;SDS011;68528;48.814;8.904;2023-04-16T02:05:27;9.05;;;5.50;;
79126;SDS011;68528;48.814;8.904;2023-04-16T02:07:52;9.02;;;5.43;;
79126;SDS011;68528;48.814;8.904;2023-04-16T02:10:38;8.23;;;4.97;;
79126;SDS011;68528;48.814;8.904;2023-04-16T02:13:10;8.73;;;5.13;;
79126;SDS011;68528;48.814;8.904;2023-04-16T02:15:35;10.82;;;6.30;;
79126;SDS011;68528;48.814;8.904;2023-04-16T02:18:20;10.10;;;5.50;;
79126;SDS011;68528;48.814;8.904;2023-04-16T02:20:46;8.70;;;5.20;;
79126;SDS011;68528;48.814;8.904;2023-04-16T02:23:13;7.70;;;5.28;;
79126;SDS011;68528;48.814;8.904;2023-04-16T02:25:39;9.02;;;5.60;;
79126;SDS011;68528;48.814;8.904;2023-04-16T02:28:09;10.38;;;5.60;;
79126;SDS011;68528;48.814;8.904;2023-04-16T02:30:37;11.20;;;6.43;;
79126;SDS011;68528;48.814;8.904;2023-04-16T02:33:04;7.88;;;4.88;;
79126;SDS011;68528;48.814;8.904;2023-04-16T02:35:32;10.13;;;5.95;;
79126;SDS011;68528;48.814;8.904;2023-04-16T02:37:58;8.68;;;5.18;;
79126;SDS011;68528;48.814;8.904;2023-04-16T02:41:09;12.43;;;5.43;;
79126;SDS011;68528;48.814;8.904;2023-04-16T02:43:35;11.88;;;6.13;;
79126;SDS011;68528;48.814;8.904;2023-04-16T02:46:05;12.98;;;6.85;;
79126;SDS011;68528;48.814;8.904;2023-04-16T02:48:33;14.10;;;7.55;;
79126;SDS011;68528;48.814;8.904;2023-04-16T02:50:59;14.00;;;6.97;;
79126;SDS011;68528;48.814;8.904;2023-04-16T02:53:25;14.30;;;7.13;;
79126;SDS011;68528;48.814;8.904;2023-04-16T02:55:50;11.25;;;6.55;;
79126;SDS011;68528;48.814;8.904;2023-04-16T02:58:17;10.38;;;5.90;;
79126;SDS011;68528;48.814;8.904;2023-04-16T03:00:44;14.32;;;7.65;;
79126;SDS011;68528;48.814;8.904;2023-04-16T03:03:09;12.75;;;7.15;;
79126;SDS011;68528;48.814;8.904;2023-04-16T03:05:35;14.05;;;8.18;;
79126;SDS011;68528;48.814;8.904;2023-04-16T03:08:00;14.35;;;7.85;;
79126;SDS011;68528;48.814;8.904;2023-04-16T03:10:26;13.10;;;7.07;;
79126;SDS011;68528;48.814;8.904;2023-04-16T03:12:52;14.25;;;7.35;;
79126;SDS011;68528;48.814;8.904;2023-04-16T03:15:17;15.35;;;7.80;;
79126;SDS011;68528;48.814;8.904;2023-04-16T03:17:43;15.77;;;8.65;;
79126;SDS011;68528;48.814;8.904;2023-04-16T03:20:15;15.75;;;8.68;;
79126;SDS011;68528;48.814;8.904;2023-04-16T03:22:44;11.68;;;6.13;;
79126;SDS011;68528;48.814;8.904;2023-04-16T03:25:10;12.00;;;6.32;;
79126;SDS011;68528;48.814;8.904;2023-04-16T03:27:36;13.43;;;7.20;;
79126;SDS011;68528;48.814;8.904;2023-04-16T03:30:03;10.50;;;6.40;;
79126;SDS011;68528;48.814;8.904;2023-04-16T03:32:31;12.18;;;6.68;;
79126;SDS011;68528;48.814;8.904;2023-04-16T03:34:57;12.43;;;6.32;;
79126;SDS011;68528;48.814;8.904;2023-04-16T03:37:22;11.45;;;6.18;;
79126;SDS011;68528;48.814;8.904;2023-04-16T03:40:08;12.05;;;6.40;;
79126;SDS011;68528;48.814;8.904;2023-04-16T03:42:34;11.02;;;6.63;;
79126;SDS011;68528;48.814;8.904;2023-04-16T03:45:01;14.13;;;7.28;;
79126;SDS011;68528;48.814;8.904;2023-04-16T03:47:27;15.13;;;7.97;;
79126;SDS011;68528;48.814;8.904;2023-04-16T03:49:53;12.70;;;6.55;;
79126;SDS011;68528;48.814;8.904;2023-04-16T03:52:20;12.63;;;6.97;;
79126;SDS011;68528;48.814;8.904;2023-04-16T03:54:45;13.82;;;5.82;;
79126;SDS011;68528;48.814;8.904;2023-04-16T03:57:11;11.57;;;6.30;;
79126;SDS011;68528;48.814;8.904;2023-04-16T03:59:37;12.13;;;6.43;;
79126;SDS011;68528;48.814;8.904;2023-04-16T04:02:05;11.02;;;6.30;;
79126;SDS011;68528;48.814;8.904;2023-04-16T04:04:30;10.27;;;5.68;;
79126;SDS011;68528;48.814;8.904;2023-04-16T04:06:56;12.45;;;5.85;;
79126;SDS011;68528;48.814;8.904;2023-04-16T04:09:21;12.00;;;5.30;;
79126;SDS011;68528;48.814;8.904;2023-04-16T04:11:47;11.45;;;6.05;;
79126;SDS011;68528;48.814;8.904;2023-04-16T04:14:13;10.05;;;5.38;;
79126;SDS011;68528;48.814;8.904;2023-04-16T04:16:38;12.23;;;6.15;;
79126;SDS011;68528;48.814;8.904;2023-04-16T04:19:04;12.75;;;5.80;;
79126;SDS011;68528;48.814;8.904;2023-04-16T04:21:31;12.57;;;5.70;;
79126;SDS011;68528;48.814;8.904;2023-04-16T04:23:57;10.88;;;5.60;;
79126;SDS011;68528;48.814;8.904;2023-04-16T04:26:22;10.85;;;6.18;;
79126;SDS011;68528;48.814;8.904;2023-04-16T04:28:50;11.45;;;5.90;;
79126;SDS011;68528;48.814;8.904;2023-04-16T04:31:15;10.88;;;5.28;;
79126;SDS011;68528;48.814;8.904;2023-04-16T04:33:41;11.50;;;5.78;;
79126;SDS011;68528;48.814;8.904;2023-04-16T04:36:07;12.20;;;6.20;;
79126;SDS011;68528;48.814;8.904;2023-04-16T04:38:33;12.07;;;6.85;;
79126;SDS011;68528;48.814;8.904;2023-04-16T04:40:59;11.38;;;5.45;;
79126;SDS011;68528;48.814;8.904;2023-04-16T04:43:25;13.05;;;6.80;;
79126;SDS011;68528;48.814;8.904;2023-04-16T04:45:52;15.70;;;6.97;;
79126;SDS011;68528;48.814;8.904;2023-04-16T04:48:18;9.70;;;5.22;;
79126;SDS011;68528;48.814;8.904;2023-04-16T04:50:45;15.10;;;6.85;;
79126;SDS011;68528;48.814;8.904;2023-04-16T04:53:12;12.38;;;6.35;;
79126;SDS011;68528;48.814;8.904;2023-04-16T04:55:39;16.92;;;8.48;;
79126;SDS011;68528;48.814;8.904;2023-04-16T04:58:06;21.95;;;9.48;;
79126;SDS011;68528;48.814;8.904;2023-04-16T05:00:51;20.67;;;9.80;;
79126;SDS011;68528;48.814;8.904;2023-04-16T05:03:18;21.05;;;9.90;;
79126;SDS011;68528;48.814;8.904;2023-04-16T05:05:46;23.65;;;11.30;;
79126;SDS011;68528;48.814;8.904;2023-04-16T05:08:13;23.08;;;11.32;;
79126;SDS011;68528;48.814;8.904;2023-04-16T05:10:40;23.58;;;10.82;;
79126;SDS011;68528;48.814;8.904;2023-04-16T05:13:07;22.40;;;10.70;;
79126;SDS011;68528;48.814;8.904;2023-04-16T05:15:33;21.20;;;11.02;;
79126;SDS011;68528;48.814;8.904;2023-04-16T05:17:59;24.60;;;11.00;;
79126;SDS011;68528;48.814;8.904;2023-04-16T05:20:28;21.30;;;10.73;;
79126;SDS011;68528;48.814;8.904;2023-04-16T05:22:55;19.42;;;9.57;;
79126;SDS011;68528;48.814;8.904;2023-04-16T05:25:20;27.67;;;10.98;;
79126;SDS011;68528;48.814;8.904;2023-04-16T05:27:46;19.48;;;10.27;;
79126;SDS011;68528;48.814;8.904;2023-04-16T05:30:12;20.98;;;10.75;;
79126;SDS011;68528;48.814;8.904;2023-04-16T05:32:41;25.52;;;11.63;;
79126;SDS011;68528;48.814;8.904;2023-04-16T05:35:07;22.63;;;11.60;;
79126;SDS011;68528;48.814;8.904;2023-04-16T05:37:33;26.23;;;12.35;;
79126;SDS011;68528;48.814;8.904;2023-04-16T05:39:59;24.15;;;11.73;;
79126;SDS011;68528;48.814;8.904;2023-04-16T05:42:25;24.30;;;11.73;;
79126;SDS011;68528;48.814;8.904;2023-04-16T05:44:50;26.98;;;12.50;;
79126;SDS011;68528;48.814;8.904;2023-04-16T05:47:17;25.48;;;11.57;;
79126;SDS011;68528;48.814;8.904;2023-04-16T05:49:43;21.38;;;11.05;;
79126;SDS011;68528;48.814;8.904;2023-04-16T05:52:08;22.63;;;11.05;;
79126;SDS011;68528;48.814;8.904;2023-04-16T05:54:34;24.10;;;11.45;;
79126;SDS011;68528;48.814;8.904;2023-04-16T05:56:59;22.25;;;11.43;;
79126;SDS011;68528;48.814;8.904;2023-04-16T05:59:26;22.67;;;11.52;;
79126;SDS011;68528;48.814;8.904;2023-04-16T06:01:53;28.60;;;12.80;;
79126;SDS011;68528;48.814;8.904;2023-04-16T06:04:19;24.35;;;12.13;;
79126;SDS011;68528;48.814;8.904;2023-04-16T06:06:45;25.80;;;10.90;;
79126;SDS011;68528;48.814;8.904;2023-04-16T06:09:10;26.67;;;11.60;;
79126;SDS011;68528;48.814;8.904;2023-04-16T06:11:36;23.45;;;12.27;;
79126;SDS011;68528;48.814;8.904;2023-04-16T06:14:01;25.30;;;12.02;;
79126;SDS011;68528;48.814;8.904;2023-04-16T06:16:27;30.17;;;14.10;;
79126;SDS011;68528;48.814;8.904;2023-04-16T06:18:53;25.80;;;12.38;;
79126;SDS011;68528;48.814;8.904;2023-04-16T06:21:19;29.80;;;14.30;;
79126;SDS011;68528;48.814;8.904;2023-04-16T06:23:45;26.20;;;12.63;;
79126;SDS011;68528;48.814;8.904;2023-04-16T06:26:11;30.48;;;14.00;;
79126;SDS011;68528;48.814;8.904;2023-04-16T06:28:37;28.13;;;12.65;;
79126;SDS011;68528;48.814;8.904;2023-04-16T06:31:04;26.95;;;12.63;;
79126;SDS011;68528;48.814;8.904;2023-04-16T06:33:30;27.13;;;13.40;;
79126;SDS011;68528;48.814;8.904;2023-04-16T06:35:56;30.30;;;12.50;;
79126;SDS011;68528;48.814;8.904;2023-04-16T06:38:23;31.52;;;14.98;;
79126;SDS011;68528;48.814;8.904;2023-04-16T06:40:49;30.67;;;13.43;;
79126;SDS011;68528;48.814;8.904;2023-04-16T06:43:15;29.05;;;13.05;;
79126;SDS011;68528;48.814;8.904;2023-04-16T06:45:44;26.58;;;12.45;;
79126;SDS011;68528;48.814;8.904;2023-04-16T06:48:10;24.08;;;11.88;;
79126;SDS011;68528;48.814;8.904;2023-04-16T06:50:37;24.35;;;11.55;;
79126;SDS011;68528;48.814;8.904;2023-04-16T06:53:06;23.42;;;11.93;;
79126;SDS011;68528;48.814;8.904;2023-04-16T06:55:31;22.70;;;11.55;;
79126;SDS011;68528;48.814;8.904;2023-04-16T07:00:54;25.25;;;11.32;;
79126;SDS011;68528;48.814;8.904;2023-04-16T07:03:24;23.95;;;11.77;;
79126;SDS011;68528;48.814;8.904;2023-04-16T07:05:55;23.98;;;12.35;;
79126;SDS011;68528;48.814;8.904;2023-04-16T07:08:21;25.15;;;11.32;;
79126;SDS011;68528;48.814;8.904;2023-04-16T07:10:46;22.35;;;10.65;;
79126;SDS011;68528;48.814;8.904;2023-04-16T07:13:12;22.73;;;10.60;;
79126;SDS011;68528;48.814;8.904;2023-04-16T07:15:38;23.98;;;11.57;;
79126;SDS011;68528;48.814;8.904;2023-04-16T07:18:04;26.42;;;11.98;;
79126;SDS011;68528;48.814;8.904;2023-04-16T07:20:31;18.80;;;10.50;;
79126;SDS011;68528;48.814;8.904;2023-04-16T07:22:56;23.23;;;11.32;;
79126;SDS011;68528;48.814;8.904;2023-04-16T07:25:23;23.90;;;11.85;;
79126;SDS011;68528;48.814;8.904;2023-04-16T07:27:50;20.05;;;10.30;;
79126;SDS011;68528;48.814;8.904;2023-04-16T07:30:16;19.70;;;10.88;;
79126;SDS011;68528;48.814;8.904;2023-04-16T07:32:43;23.83;;;11.50;;
79126;SDS011;68528;48.814;8.904;2023-04-16T07:35:16;22.13;;;10.75;;
79126;SDS011;68528;48.814;8.904;2023-04-16T07:37:43;23.88;;;11.57;;
79126;SDS011;68528;48.814;8.904;2023-04-16T07:40:11;20.77;;;10.18;;
79126;SDS011;68528;48.814;8.904;2023-04-16T07:42:39;23.45;;;11.00;;
79126;SDS011;68528;48.814;8.904;2023-04-16T07:45:04;21.20;;;10.05;;
79126;SDS011;68528;48.814;8.904;2023-04-16T07:47:30;21.63;;;10.05;;
79126;SDS011;68528;48.814;8.904;2023-04-16T07:49:55;19.73;;;10.07;;
79126;SDS011;68528;48.814;8.904;2023-04-16T07:52:22;22.73;;;10.45;;
79126;SDS011;68528;48.814;8.904;2023-04-16T07:54:47;20.85;;;9.40;;
79126;SDS011;68528;48.814;8.904;2023-04-16T07:57:13;21.77;;;10.82;;
79126;SDS011;68528;48.814;8.904;2023-04-16T07:59:38;24.92;;;11.43;;
79126;SDS011;68528;48.814;8.904;2023-04-16T08:02:04;22.02;;;9.25;;
79126;SDS011;68528;48.814;8.904;2023-04-16T08:04:30;20.23;;;10.70;;
79126;SDS011;68528;48.814;8.904;2023-04-16T08:06:55;16.73;;;9.35;;
79126;SDS011;68528;48.814;8.904;2023-04-16T08:09:21;20.83;;;9.02;;
79126;SDS011;68528;48.814;8.904;2023-04-16T08:11:53;19.13;;;9.35;;
79126;SDS011;68528;48.814;8.904;2023-04-16T08:14:19;18.30;;;8.90;;
79126;SDS011;68528;48.814;8.904;2023-04-16T08:16:46;21.08;;;10.48;;
79126;SDS011;68528;48.814;8.904;2023-04-16T08:19:11;18.55;;;10.00;;
79126;SDS011;68528;48.814;8.904;2023-04-16T08:21:38;19.05;;;9.30;;
79126;SDS011;68528;48.814;8.904;2023-04-16T08:24:05;18.48;;;9.07;;
79126;SDS011;68528;48.814;8.904;2023-04-16T08:26:31;17.30;;;9.00;;
79126;SDS011;68528;48.814;8.904;2023-04-16T08:28:59;18.63;;;10.30;;
79126;SDS011;68528;48.814;8.904;2023-04-16T08:31:28;19.77;;;9.27;;
79126;SDS011;68528;48.814;8.904;2023-04-16T08:34:16;17.88;;;9.55;;
79126;SDS011;68528;48.814;8.904;2023-04-16T08:36:42;17.60;;;8.35;;
79126;SDS011;68528;48.814;8.904;2023-04-16T08:39:07;15.40;;;8.35;;
79126;SDS011;68528;48.814;8.904;2023-04-16T08:41:33;15.75;;;8.25;;
79126;SDS011;68528;48.814;8.904;2023-04-16T08:44:06;16.60;;;8.63;;
79126;SDS011;68528;48.814;8.904;2023-04-16T08:46:36;20.45;;;9.77;;
79126;SDS011;68528;48.814;8.904;2023-04-16T08:49:13;14.88;;;8.40;;
79126;SDS011;68528;48.814;8.904;2023-04-16T08:52:00;19.10;;;9.27;;
79126;SDS011;68528;48.814;8.904;2023-04-16T08:54:32;17.00;;;8.70;;
79126;SDS011;68528;48.814;8.904;2023-04-16T08:57:04;16.30;;;9.30;;
79126;SDS011;68528;48.814;8.904;2023-04-16T08:59:30;20.15;;;9.30;;
79126;SDS011;68528;48.814;8.904;2023-04-16T09:01:59;16.15;;;8.85;;
79126;SDS011;68528;48.814;8.904;2023-04-16T09:04:26;17.25;;;9.15;;
79126;SDS011;68528;48.814;8.904;2023-04-16T09:07:00;21.05;;;9.75;;
79126;SDS011;68528;48.814;8.904;2023-04-16T09:09:29;19.88;;;10.05;;
79126;SDS011;68528;48.814;8.904;2023-04-16T09:11:55;21.52;;;10.45;;
79126;SDS011;68528;48.814;8.904;2023-04-16T09:14:21;21.38;;;9.73;;
79126;SDS011;68528;48.814;8.904;2023-04-16T09:16:47;19.88;;;9.07;;
79126;SDS011;68528;48.814;8.904;2023-04-16T09:19:13;20.80;;;9.80;;
79126;SDS011;68528;48.814;8.904;2023-04-16T09:21:40;19.42;;;9.55;;
79126;SDS011;68528;48.814;8.904;2023-04-16T09:24:10;20.10;;;10.38;;
79126;SDS011;68528;48.814;8.904;2023-04-16T09:26:39;20.95;;;10.50;;
79126;SDS011;68528;48.814;8.904;2023-04-16T09:29:09;21.80;;;10.13;;
79126;SDS011;68528;48.814;8.904;2023-04-16T09:31:36;22.13;;;10.70;;
79126;SDS011;68528;48.814;8.904;2023-04-16T09:34:07;23.48;;;11.80;;
79126;SDS011;68528;48.814;8.904;2023-04-16T09:36:34;19.73;;;9.00;;
79126;SDS011;68528;48.814;8.904;2023-04-16T09:39:00;23.48;;;9.65;;
79126;SDS011;68528;48.814;8.904;2023-04-16T09:41:46;19.90;;;10.23;;
79126;SDS011;68528;48.814;8.904;2023-04-16T09:44:12;26.13;;;10.32;;
79126;SDS011;68528;48.814;8.904;2023-04-16T09:46:41;18.25;;;9.50;;
79126;SDS011;68528;48.814;8.904;2023-04-16T09:49:16;21.52;;;10.60;;
79126;SDS011;68528;48.814;8.904;2023-04-16T09:51:45;20.30;;;9.25;;
79126;SDS011;68528;48.814;8.904;2023-04-16T09:54:17;23.65;;;10.85;;
79126;SDS011;68528;48.814;8.904;2023-04-16T09:56:44;19.50;;;9.23;;
79126;SDS011;68528;48.814;8.904;2023-04-16T09:59:19;20.50;;;10.10;;
79126;SDS011;68528;48.814;8.904;2023-04-16T10:01:46;21.92;;;9.73;;
79126;SDS011;68528;48.814;8.904;2023-04-16T10:04:45;24.20;;;10.32;;
79126;SDS011;68528;48.814;8.904;2023-04-16T10:07:14;20.08;;;10.10;;
79126;SDS011;68528;48.814;8.904;2023-04-16T10:09:41;22.48;;;9.63;;
79126;SDS011;68528;48.814;8.904;2023-04-16T10:12:07;23.95;;;10.10;;
79126;SDS011;68528;48.814;8.904;2023-04-16T10:14:38;19.55;;;10.43;;
79126;SDS011;68528;48.814;8.904;2023-04-16T10:17:05;21.05;;;9.73;;
79126;SDS011;68528;48.814;8.904;2023-04-16T10:19:36;20.77;;;10.20;;
79126;SDS011;68528;48.814;8.904;2023-04-16T10:22:11;21.48;;;11.15;;
79126;SDS011;68528;48.814;8.904;2023-04-16T10:24:37;18.00;;;9.13;;
79126;SDS011;68528;48.814;8.904;2023-04-16T10:27:05;19.33;;;9.98;;
79126;SDS011;68528;48.814;8.904;2023-04-16T10:29:30;19.02;;;9.35;;
79126;SDS011;68528;48.814;8.904;2023-04-16T10:31:57;18.38;;;8.07;;
79126;SDS011;68528;48.814;8.904;2023-04-16T10:34:25;19.88;;;9.70;;
79126;SDS011;68528;48.814;8.904;2023-04-16T10:36:54;20.30;;;9.07;;
79126;SDS011;68528;48.814;8.904;2023-04-16T10:39:26;22.88;;;9.15;;
79126;SDS011;68528;48.814;8.904;2023-04-16T10:42:06;18.50;;;8.35;;
79126;SDS011;68528;48.814;8.904;2023-04-16T10:44:33;18.17;;;8.55;;
79126;SDS011;68528;48.814;8.904;2023-04-16T10:46:58;18.95;;;7.82;;
79126;SDS011;68528;48.814;8.904;2023-04-16T10:49:25;15.63;;;7.70;;
79126;SDS011;68528;48.814;8.904;2023-04-16T10:54:30;17.67;;;8.40;;
79126;SDS011;68528;48.814;8.904;2023-04-16T10:56:58;15.02;;;7.85;;
79126;SDS011;68528;48.814;8.904;2023-04-16T10:59:24;15.48;;;8.18;;
79126;SDS011;68528;48.814;8.904;2023-04-16T11:01:58;14.65;;;7.47;;
79126;SDS011;68528;48.814;8.904;2023-04-16T11:04:26;19.40;;;7.68;;
79126;SDS011;68528;48.814;8.904;2023-04-16T11:12:15;14.07;;;7.72;;
79126;SDS011;68528;48.814;8.904;2023-04-16T11:14:49;20.05;;;8.00;;
79126;SDS011;68528;48.814;8.904;2023-04-16T11:17:17;13.35;;;6.55;;
79126;SDS011;68528;48.814;8.904;2023-04-16T11:19:43;11.75;;;6.65;;
79126;SDS011;68528;48.814;8.904;2023-04-16T11:22:12;14.43;;;6.72;;
79126;SDS011;68528;48.814;8.904;2023-04-16T11:24:41;11.93;;;5.63;;
79126;SDS011;68528;48.814;8.904;2023-04-16T11:27:07;12.32;;;6.43;;
79126;SDS011;68528;48.814;8.904;2023-04-16T11:29:32;15.05;;;7.50;;
79126;SDS011;68528;48.814;8.904;2023-04-16T11:31:58;14.18;;;7.30;;
79126;SDS011;68528;48.814;8.904;2023-04-16T11:34:23;11.40;;;5.45;;
79126;SDS011;68528;48.814;8.904;2023-04-16T11:36:50;9.68;;;6.30;;
79126;SDS011;68528;48.814;8.904;2023-04-16T11:39:17;10.32;;;5.68;;
79126;SDS011;68528;48.814;8.904;2023-04-16T11:46:52;9.63;;;5.35;;
79126;SDS011;68528;48.814;8.904;2023-04-16T11:49:30;8.63;;;4.32;;
79126;SDS011;68528;48.814;8.904;2023-04-16T11:51:57;7.18;;;3.70;;
79126;SDS011;68528;48.814;8.904;2023-04-16T11:54:27;7.13;;;3.47;;
79126;SDS011;68528;48.814;8.904;2023-04-16T11:56:58;6.32;;;3.38;;
79126;SDS011;68528;48.814;8.904;2023-04-16T11:59:24;6.32;;;3.20;;
79126;SDS011;68528;48.814;8.904;2023-04-16T12:01:51;6.82;;;3.25;;
79126;SDS011;68528;48.814;8.904;2023-04-16T12:04:22;5.97;;;3.05;;
79126;SDS011;68528;48.814;8.904;2023-04-16T12:07:08;7.20;;;3.58;;
79126;SDS011;68528;48.814;8.904;2023-04-16T12:09:36;7.07;;;3.40;;
79126;SDS011;68528;48.814;8.904;2023-04-16T12:12:28;4.68;;;2.67;;
79126;SDS011;68528;48.814;8.904;2023-04-16T12:14:55;4.63;;;3.15;;
79126;SDS011;68528;48.814;8.904;2023-04-16T12:17:27;6.13;;;3.25;;
79126;SDS011;68528;48.814;8.904;2023-04-16T12:19:57;6.20;;;2.83;;
79126;SDS011;68528;48.814;8.904;2023-04-16T12:22:46;5.63;;;2.67;;
79126;SDS011;68528;48.814;8.904;2023-04-16T12:25:17;5.72;;;3.30;;
79126;SDS011;68528;48.814;8.904;2023-04-16T12:27:51;5.35;;;2.88;;
79126;SDS011;68528;48.814;8.904;2023-04-16T12:30:22;5.55;;;2.47;;
79126;SDS011;68528;48.814;8.904;2023-04-16T12:32:50;4.15;;;2.90;;
79126;SDS011;68528;48.814;8.904;2023-04-16T12:35:30;5.07;;;2.65;;
79126;SDS011;68528;48.814;8.904;2023-04-16T12:37:57;6.10;;;3.38;;
79126;SDS011;68528;48.814;8.904;2023-04-16T12:40:42;5.65;;;3.33;;
79126;SDS011;68528;48.814;8.904;2023-04-16T12:43:08;7.65;;;3.65;;
79126;SDS011;68528;48.814;8.904;2023-04-16T12:45:34;6.28;;;3.53;;
79126;SDS011;68528;48.814;8.904;2023-04-16T12:47:59;5.90;;;3.78;;
79126;SDS011;68528;48.814;8.904;2023-04-16T12:50:25;5.93;;;2.80;;
79126;SDS011;68528;48.814;8.904;2023-04-16T12:52:52;5.80;;;3.17;;
79126;SDS011;68528;48.814;8.904;2023-04-16T12:55:19;4.20;;;3.03;;
79126;SDS011;68528;48.814;8.904;2023-04-16T12:57:45;4.82;;;3.05;;
79126;SDS011;68528;48.814;8.904;2023-04-16T13:00:12;5.60;;;3.38;;
79126;SDS011;68528;48.814;8.904;2023-04-16T13:02:38;5.57;;;3.17;;
79126;SDS011;68528;48.814;8.904;2023-04-16T13:05:05;7.20;;;3.88;;
79126;SDS011;68528;48.814;8.904;2023-04-16T13:07:31;5.28;;;3.55;;
79126;SDS011;68528;48.814;8.904;2023-04-16T13:10:17;8.18;;;3.88;;
79126;SDS011;68528;48.814;8.904;2023-04-16T13:13:04;7.57;;;4.20;;
79126;SDS011;68528;48.814;8.904;2023-04-16T13:15:30;6.00;;;3.53;;
79126;SDS011;68528;48.814;8.904;2023-04-16T13:18:16;5.07;;;3.00;;
79126;SDS011;68528;48.814;8.904;2023-04-16T13:20:42;7.07;;;4.07;;
79126;SDS011;68528;48.814;8.904;2023-04-16T13:23:07;6.43;;;3.50;;
79126;SDS011;68528;48.814;8.904;2023-04-16T13:25:33;8.23;;;4.07;;
79126;SDS011;68528;48.814;8.904;2023-04-16T13:27:59;5.55;;;3.13;;
79126;SDS011;68528;48.814;8.904;2023-04-16T13:30:24;7.47;;;4.03;;
79126;SDS011;68528;48.814;8.904;2023-04-16T13:32:51;9.73;;;4.60;;
79126;SDS011;68528;48.814;8.904;2023-04-16T13:35:16;9.82;;;4.28;;
79126;SDS011;68528;48.814;8.904;2023-04-16T13:37:41;10.02;;;5.13;;
79126;SDS011;68528;48.814;8.904;2023-04-16T13:40:16;8.65;;;5.10;;
79126;SDS011;68528;48.814;8.904;2023-04-16T13:42:48;7.95;;;4.57;;
79126;SDS011;68528;48.814;8.904;2023-04-16T13:45:13;8.52;;;4.72;;
79126;SDS011;68528;48.814;8.904;2023-04-16T13:47:39;9.20;;;4.75;;
79126;SDS011;68528;48.814;8.904;2023-04-16T13:50:06;9.13;;;4.97;;
79126;SDS011;68528;48.814;8.904;2023-04-16T13:52:32;12.25;;;5.68;;
79126;SDS011;68528;48.814;8.904;2023-04-16T13:54:57;8.65;;;5.32;;
79126;SDS011;68528;48.814;8.904;2023-04-16T13:57:25;11.07;;;6.25;;
79126;SDS011;68528;48.814;8.904;2023-04-16T13:59:52;10.88;;;5.93;;
79126;SDS011;68528;48.814;8.904;2023-04-16T14:02:18;10.02;;;5.70;;
79126;SDS011;68528;48.814;8.904;2023-04-16T14:04:44;11.05;;;6.10;;
79126;SDS011;68528;48.814;8.904;2023-04-16T14:07:10;14.10;;;7.10;;
79126;SDS011;68528;48.814;8.904;2023-04-16T14:09:37;10.85;;;6.78;;
79126;SDS011;68528;48.814;8.904;2023-04-16T14:12:03;12.23;;;6.75;;
79126;SDS011;68528;48.814;8.904;2023-04-16T14:14:29;13.65;;;6.90;;
79126;SDS011;68528;48.814;8.904;2023-04-16T14:16:56;10.20;;;6.00;;
79126;SDS011;68528;48.814;8.904;2023-04-16T14:19:23;15.15;;;7.05;;
79126;SDS011;68528;48.814;8.904;2023-04-16T14:21:48;11.25;;;6.47;;
79126;SDS011;68528;48.814;8.904;2023-04-16T14:24:14;12.02;;;6.30;;
79126;SDS011;68528;48.814;8.904;2023-04-16T14:26:41;10.35;;;6.03;;
79126;SDS011;68528;48.814;8.904;2023-04-16T14:29:08;11.05;;;6.68;;
79126;SDS011;68528;48.814;8.904;2023-04-16T14:31:33;11.40;;;5.80;;
79126;SDS011;68528;48.814;8.904;2023-04-16T14:33:59;10.77;;;6.20;;
79126;SDS011;68528;48.814;8.904;2023-04-16T14:36:35;12.88;;;6.78;;
79126;SDS011;68528;48.814;8.904;2023-04-16T14:39:02;14.05;;;7.95;;
79126;SDS011;68528;48.814;8.904;2023-04-16T14:44:38;12.48;;;6.57;;
79126;SDS011;68528;48.814;8.904;2023-04-16T14:47:19;17.05;;;7.93;;
79126;SDS011;68528;48.814;8.904;2023-04-16T14:49:46;14.02;;;7.90;;
79126;SDS011;68528;48.814;8.904;2023-04-16T14:52:11;15.50;;;8.48;;
79126;SDS011;68528;48.814;8.904;2023-04-16T14:54:40;17.65;;;9.43;;
79126;SDS011;68528;48.814;8.904;2023-04-16T14:57:07;16.63;;;8.27;;
79126;SDS011;68528;48.814;8.904;2023-04-16T14:59:37;14.35;;;8.38;;
79126;SDS011;68528;48.814;8.904;2023-04-16T15:02:22;19.30;;;10.00;;
79126;SDS011;68528;48.814;8.904;2023-04-16T15:04:48;20.00;;;10.38;;
79126;SDS011;68528;48.814;8.904;2023-04-16T15:07:36;16.50;;;8.93;;